Accueil
METAR-TAF:

METAR-TAF

Aéroports :

Farnborough, Angleterre

latitude: 51-17N, longitude: 000-46W, altitude: 65 m

Observation

Le bulletin a été fait il y a 3 heures et 38 minutes, à 19:20 UTC
Vent 10 kt de nord/nord-est, variant entre nord et nord-est
Température 3°C
Humidité 100%
Pression 1005 hPa
Visibilité: 8000 m
Nuages fragmentés à une hauteur de 600 ft

METAR: EGLF 201920Z 02010KT 350V050 8000 BKN006 03/03 Q1005

Heure: 22:58 (22:58 UTC)

Prévision

Le bulletin a été fait il y a 3 heures et 24 minutes, à 19:34 UTC
Prévision valable du 20 à 19 UTC au 20 à 20 UTC
Vent 8 kt de nord/nord-est
Visibilité: 5000 m
Nuages fragmentés à une hauteur de 500 ft
pluie faible, bruine
Temporairement
du 20 à 19 UTC au 20 à 20 UTC
Visibilité: 2500 m
Nuages fragmentés à une hauteur de 300 ft
bruine, brume

TAF: EGLF 201934Z 2019/2020 02008KT 5000 -RADZ BKN005 TEMPO 2019/2020 2500 DZ BR BKN003

Observations et prévisions météorologiques de plus de 4000 aéroports (messages METAR et TAF).

Les stations disponibles sont représentées par des disques jaunes et rouges sur la carte.

Passer la souris dessus pour voir le nom de la station.

Cliquer dessus pour voir les observations et prévisions météorologiques.

Pour changer de carte: cliquez sur les boutons verts avec une croix noire pour zoomer, sur le bouton vert avec un tiret pour effectuer un zoom arrière, ou sur les flèches vertes pour les cartes adjacentes.


METAR-TAF: